Time;durP1;ratioP1;P1;durP2;ratioP2;P2;SDS_P1;SDS_P2;PMS_P1;PMS_P2;Temp;Humidity;BMP_temperature;BMP_pressure;BME280_temperature;BME280_humidity;BME280_pressure;Samples;Min_cycle;Max_cycle;Signal;HPM_P1;HPM_P2
2023/06/15 00:01:24;;;;;;;3.97;3.65;;;12.90;99.90;;;;;;5032131;28;20262;-73
2023/06/15 00:03:49;;;;;;;3.63;3.33;;;12.90;99.90;;;;;;5032085;28;20278;-73
2023/06/15 00:06:15;;;;;;;3.70;3.40;;;13.00;99.60;;;;;;5033384;28;20195;-73
2023/06/15 00:08:40;;;;;;;6.13;3.83;;;13.00;99.60;;;;;;5032482;28;20175;-73
2023/06/15 00:11:06;;;;;;;5.18;3.70;;;13.00;99.50;;;;;;5033315;28;20178;-73
2023/06/15 00:13:31;;;;;;;4.25;3.60;;;13.00;99.70;;;;;;5032900;28;20213;-73
2023/06/15 00:15:57;;;;;;;4.10;3.75;;;13.10;99.90;;;;;;5031927;28;20226;-73
2023/06/15 00:18:22;;;;;;;3.80;3.50;;;13.00;99.90;;;;;;5033276;28;20221;-73
2023/06/15 00:20:48;;;;;;;4.40;4.00;;;13.10;99.90;;;;;;5031965;28;20179;-73
2023/06/15 00:23:17;;;;;;;4.55;3.83;;;13.10;99.90;;;;;;5033160;28;20197;-73
2023/06/15 00:25:42;;;;;;;4.03;3.67;;;13.10;99.80;;;;;;5033203;28;20186;-73
2023/06/15 00:28:08;;;;;;;4.10;3.80;;;13.10;99.80;;;;;;5031886;28;20183;-73
2023/06/15 00:30:33;;;;;;;4.00;3.70;;;13.10;99.80;;;;;;5031971;28;20190;-73
2023/06/15 00:32:59;;;;;;;7.47;3.85;;;13.10;99.80;;;;;;5032139;28;20194;-73
2023/06/15 00:35:25;;;;;;;4.00;3.70;;;13.10;99.90;;;;;;5032141;28;20206;-73
2023/06/15 00:37:50;;;;;;;3.88;3.63;;;13.10;99.90;;;;;;5031731;28;20201;-73
2023/06/15 00:40:16;;;;;;;5.00;3.92;;;13.00;99.90;;;;;;5033270;28;20184;-73
2023/06/15 00:42:41;;;;;;;6.18;4.10;;;12.90;99.90;;;;;;5031814;28;20266;-73
2023/06/15 00:45:07;;;;;;;4.57;4.15;;;12.90;99.90;;;;;;5032982;28;20207;-73
2023/06/15 00:47:38;;;;;;;6.15;4.07;;;12.90;99.90;;;;;;5031753;28;20199;-73
2023/06/15 00:50:09;;;;;;;4.00;3.70;;;12.80;99.90;;;;;;5031797;28;20278;-73
2023/06/15 00:52:36;;;;;;;4.05;3.75;;;12.80;99.90;;;;;;5034943;28;20206;-73
2023/06/15 00:55:03;;;;;;;3.95;3.63;;;12.70;99.90;;;;;;5035711;28;20211;-73
2023/06/15 00:57:30;;;;;;;6.25;3.83;;;12.70;99.90;;;;;;5036526;28;20191;-73
2023/06/15 00:59:56;;;;;;;4.50;3.95;;;12.70;99.90;;;;;;5035332;28;20175;-73
2023/06/15 01:18:03;;;;;;;4.50;4.10;;;12.30;99.90;;;;;;4985295;23;20236;-73
2023/06/15 01:20:38;;;;;;;4.40;4.10;;;12.30;99.90;;;;;;4977420;28;20164;-73
2023/06/15 01:23:29;;;;;;;4.70;4.30;;;12.10;99.90;;;;;;4977001;28;20177;-73
2023/06/15 01:26:05;;;;;;;4.80;4.40;;;12.00;99.90;;;;;;4976075;28;20228;-73
2023/06/15 01:28:33;;;;;;;4.50;4.10;;;12.00;99.90;;;;;;4976166;28;20180;-72
2023/06/15 01:31:00;;;;;;;4.63;3.90;;;12.00;99.90;;;;;;4976247;28;20220;-72
2023/06/15 01:33:25;;;;;;;5.82;3.85;;;12.00;99.90;;;;;;4976808;28;20195;-72
2023/06/15 01:35:51;;;;;;;6.53;3.85;;;12.10;99.90;;;;;;4976522;28;20216;-73
2023/06/15 01:38:24;;;;;;;5.00;3.88;;;12.00;99.90;;;;;;4977367;28;20176;-73
2023/06/15 01:41:40;;;;;;;7.10;4.03;;;12.00;99.90;;;;;;4976777;28;20176;-73
2023/06/15 01:44:06;;;;;;;4.28;3.97;;;12.10;99.90;;;;;;4975883;28;20208;-73
2023/06/15 01:46:33;;;;;;;4.30;3.90;;;12.10;99.90;;;;;;4975786;28;20192;-73
2023/06/15 01:49:00;;;;;;;5.22;3.97;;;12.10;99.90;;;;;;4975903;28;20200;-73
2023/06/15 01:51:28;;;;;;;4.43;4.03;;;12.10;99.90;;;;;;4976560;28;20188;-73
2023/06/15 01:53:53;;;;;;;4.50;4.10;;;12.10;99.90;;;;;;4977025;28;20177;-73
2023/06/15 01:56:19;;;;;;;7.78;4.05;;;12.10;99.90;;;;;;4975471;28;20193;-73
2023/06/15 01:58:45;;;;;;;6.97;4.00;;;12.10;99.90;;;;;;4975792;28;20640;-73
2023/06/15 02:01:10;;;;;;;4.65;4.15;;;12.10;99.90;;;;;;4975818;28;20185;-73
2023/06/15 02:03:36;;;;;;;4.30;3.58;;;12.20;99.90;;;;;;4975427;28;20647;-73
2023/06/15 02:06:01;;;;;;;4.28;3.95;;;12.10;99.90;;;;;;4975324;28;20618;-73
2023/06/15 02:08:27;;;;;;;4.20;3.90;;;12.10;99.90;;;;;;4975430;28;20191;-73
2023/06/15 02:10:52;;;;;;;4.18;3.88;;;12.10;99.90;;;;;;4975310;28;20204;-73
2023/06/15 02:13:18;;;;;;;4.25;3.85;;;12.00;99.90;;;;;;4975178;28;20662;-73
2023/06/15 02:15:43;;;;;;;4.15;3.75;;;11.90;99.90;;;;;;4974990;28;20768;-73
2023/06/15 02:18:14;;;;;;;4.47;4.07;;;11.90;99.90;;;;;;4976716;28;20181;-73
2023/06/15 02:20:41;;;;;;;4.25;3.92;;;11.90;99.90;;;;;;4976035;28;20180;-73
2023/06/15 02:23:07;;;;;;;4.50;4.13;;;11.80;99.90;;;;;;4976299;28;20256;-73
2023/06/15 02:25:32;;;;;;;4.65;4.35;;;11.80;99.90;;;;;;4974983;28;20181;-73
2023/06/15 02:27:58;;;;;;;6.15;3.63;;;11.90;99.90;;;;;;4975562;28;20192;-72
2023/06/15 02:30:25;;;;;;;3.95;3.72;;;11.90;99.90;;;;;;4975799;28;20185;-72
2023/06/15 02:32:52;;;;;;;4.38;3.90;;;11.80;99.90;;;;;;4975681;28;20230;-72
2023/06/15 02:35:19;;;;;;;4.85;4.53;;;11.80;99.90;;;;;;4974844;28;20205;-72
2023/06/15 02:37:44;;;;;;;4.75;4.38;;;11.60;99.90;;;;;;4975945;28;20197;-73
2023/06/15 02:40:10;;;;;;;4.75;4.18;;;11.60;99.90;;;;;;4974977;28;20185;-73
2023/06/15 02:42:37;;;;;;;4.57;4.18;;;11.70;99.90;;;;;;4974848;28;20652;-73
2023/06/15 02:45:03;;;;;;;6.78;4.57;;;11.70;99.90;;;;;;4974895;28;20746;-72
2023/06/15 02:47:30;;;;;;;4.68;4.35;;;11.60;99.90;;;;;;4974612;28;20299;-72
2023/06/15 02:49:58;;;;;;;5.35;4.20;;;11.50;99.90;;;;;;4975438;28;20188;-72
2023/06/15 02:52:27;;;;;;;4.72;4.32;;;11.30;99.90;;;;;;4974536;28;20684;-72
2023/06/15 02:54:53;;;;;;;5.22;4.13;;;11.30;99.90;;;;;;4974387;28;20211;-72
2023/06/15 02:57:18;;;;;;;4.65;4.35;;;11.40;99.90;;;;;;4975658;28;20193;-72
2023/06/15 02:59:44;;;;;;;5.03;4.60;;;11.30;99.90;;;;;;4975277;28;20228;-72
2023/06/15 03:02:10;;;;;;;4.72;4.32;;;11.30;99.90;;;;;;4974391;28;20184;-72
2023/06/15 03:04:44;;;;;;;5.90;5.13;;;11.40;99.90;;;;;;4974292;28;20185;-72
2023/06/15 03:07:16;;;;;;;4.63;4.32;;;11.40;99.90;;;;;;4975475;28;20196;-72
2023/06/15 03:09:46;;;;;;;4.40;4.10;;;11.30;99.90;;;;;;4975123;28;20236;-72
2023/06/15 03:12:12;;;;;;;4.82;4.43;;;11.30;99.90;;;;;;4975068;28;20208;-73
2023/06/15 03:14:38;;;;;;;8.98;5.25;;;11.30;99.90;;;;;;4974834;28;20201;-73
2023/06/15 03:17:08;;;;;;;4.63;4.30;;;11.30;99.90;;;;;;4974103;28;20213;-73
2023/06/15 03:19:33;;;;;;;5.40;4.22;;;11.40;99.90;;;;;;4974094;28;20600;-72
2023/06/15 03:22:00;;;;;;;7.22;4.85;;;11.50;99.90;;;;;;4974313;28;20173;-72
2023/06/15 03:24:25;;;;;;;5.35;4.75;;;11.40;99.90;;;;;;4974872;28;20208;-72
2023/06/15 03:26:51;;;;;;;4.57;4.18;;;11.50;99.90;;;;;;4974294;28;20247;-73
2023/06/15 03:29:17;;;;;;;4.97;4.57;;;11.50;99.90;;;;;;4974848;28;20220;-72
2023/06/15 03:31:44;;;;;;;4.70;4.40;;;11.60;99.90;;;;;;4975163;28;20181;-72
2023/06/15 03:34:10;;;;;;;4.75;4.35;;;11.60;99.90;;;;;;4973807;28;20176;-72
2023/06/15 03:36:36;;;;;;;6.03;4.60;;;11.60;99.90;;;;;;4973702;28;20201;-73
2023/06/15 03:39:03;;;;;;;4.40;4.10;;;11.50;99.90;;;;;;4974055;28;20189;-73
2023/06/15 03:41:30;;;;;;;4.35;4.05;;;11.50;99.90;;;;;;4973737;28;20203;-72
2023/06/15 03:43:56;;;;;;;5.40;4.35;;;11.60;99.90;;;;;;4973998;28;20177;-72
2023/06/15 03:46:21;;;;;;;4.82;4.47;;;11.70;99.90;;;;;;4973888;28;20197;-73
2023/06/15 03:48:48;;;;;;;9.02;4.90;;;11.60;99.90;;;;;;4974466;28;20181;-73
2023/06/15 03:51:13;;;;;;;7.13;5.20;;;11.70;99.90;;;;;;4973572;28;20647;-73
2023/06/15 03:53:42;;;;;;;9.48;4.53;;;11.60;99.90;;;;;;4973852;28;20216;-72
2023/06/15 03:56:08;;;;;;;7.43;4.18;;;11.60;99.90;;;;;;4973801;28;20212;-73
2023/06/15 03:58:33;;;;;;;4.50;4.20;;;11.60;99.90;;;;;;4973454;28;20204;-72
2023/06/15 04:01:00;;;;;;;5.72;4.72;;;11.70;99.90;;;;;;4974984;28;20173;-72
2023/06/15 04:03:26;;;;;;;6.35;5.22;;;11.80;99.90;;;;;;4974714;28;20603;-72
2023/06/15 04:05:52;;;;;;;5.70;4.60;;;11.70;99.90;;;;;;4973691;28;20205;-72
2023/06/15 04:08:18;;;;;;;5.43;4.38;;;11.60;99.90;;;;;;4973395;28;20177;-72
2023/06/15 04:10:44;;;;;;;7.00;5.10;;;11.60;99.90;;;;;;4973427;28;20204;-72
2023/06/15 04:13:09;;;;;;;4.95;4.55;;;11.60;99.90;;;;;;4974825;28;20180;-72
2023/06/15 04:15:35;;;;;;;5.07;4.60;;;11.60;99.90;;;;;;4973469;28;20263;-72
2023/06/15 04:18:01;;;;;;;5.32;4.85;;;11.70;99.90;;;;;;4973353;28;20184;-72
2023/06/15 04:20:31;;;;;;;7.45;4.60;;;11.80;99.90;;;;;;4973338;28;20188;-72
2023/06/15 04:22:57;;;;;;;5.93;5.18;;;11.90;99.90;;;;;;4973680;28;20181;-72
2023/06/15 04:25:23;;;;;;;5.97;5.35;;;11.90;99.90;;;;;;4973397;28;20181;-72
2023/06/15 04:27:49;;;;;;;10.77;5.10;;;11.90;99.90;;;;;;4976866;28;20188;-73
2023/06/15 04:30:16;;;;;;;23.27;5.88;;;12.00;99.90;;;;;;4978026;28;20564;-73
2023/06/15 04:32:46;;;;;;;17.40;5.68;;;12.10;99.90;;;;;;4977016;28;20181;-73
2023/06/15 04:35:16;;;;;;;9.40;5.43;;;12.20;99.90;;;;;;4977258;28;20204;-73
2023/06/15 04:37:42;;;;;;;12.93;5.40;;;12.30;99.90;;;;;;4977248;28;20203;-73
2023/06/15 04:40:10;;;;;;;7.28;4.68;;;12.50;99.90;;;;;;4976951;28;20264;-73
2023/06/15 04:42:37;;;;;;;27.55;6.22;;;12.60;99.90;;;;;;4978388;28;20166;-73
2023/06/15 04:45:03;;;;;;;29.60;6.05;;;12.80;99.90;;;;;;4977195;28;20212;-72
2023/06/15 04:47:29;;;;;;;47.13;7.00;;;12.90;99.90;;;;;;4976794;28;20208;-73
2023/06/15 04:49:54;;;;;;;23.15;5.63;;;13.10;99.90;;;;;;4977981;28;20235;-73
2023/06/15 04:52:20;;;;;;;21.95;5.57;;;13.20;99.90;;;;;;4978934;28;20212;-73
2023/06/15 04:54:45;;;;;;;19.80;5.25;;;13.30;99.90;;;;;;4976634;28;20291;-73
2023/06/15 04:57:11;;;;;;;20.63;5.95;;;13.60;99.90;;;;;;4976992;28;20203;-73
2023/06/15 04:59:39;;;;;;;26.17;5.95;;;13.90;99.90;;;;;;4977565;28;20173;-73
2023/06/15 05:02:06;;;;;;;51.28;6.95;;;14.20;99.90;;;;;;4977610;28;20232;-72
2023/06/15 05:04:32;;;;;;;29.95;6.88;;;14.50;99.90;;;;;;4976639;28;20647;-73
2023/06/15 05:06:59;;;;;;;42.83;6.28;;;14.70;99.90;;;;;;4976835;28;20271;-73
2023/06/15 05:09:24;;;;;;;19.95;5.50;;;14.70;99.90;;;;;;4976437;28;20647;-73
2023/06/15 05:11:50;;;;;;;36.53;6.57;;;14.90;99.90;;;;;;4977250;28;20361;-73
2023/06/15 05:14:15;;;;;;;35.95;5.93;;;14.80;99.90;;;;;;4977497;28;20176;-73
2023/06/15 05:16:41;;;;;;;26.23;5.95;;;14.80;99.90;;;;;;4976462;28;20217;-73
2023/06/15 05:19:06;;;;;;;50.30;6.63;;;15.00;99.90;;;;;;4976354;28;20184;-73
2023/06/15 05:21:36;;;;;;;52.08;6.95;;;15.00;99.90;;;;;;4976409;28;20185;-73
2023/06/15 05:24:01;;;;;;;57.83;7.63;;;15.10;99.90;;;;;;4977247;28;20635;-73
2023/06/15 05:26:27;;;;;;;34.22;6.47;;;15.20;99.90;;;;;;4976741;28;20223;-73
2023/06/15 05:28:52;;;;;;;56.75;7.75;;;15.20;99.90;;;;;;4976435;28;20251;-73
2023/06/15 05:31:18;;;;;;;67.47;7.63;;;15.40;99.90;;;;;;4977506;28;20177;-73
2023/06/15 05:33:44;;;;;;;53.00;6.97;;;15.30;99.90;;;;;;4976902;28;20195;-73
2023/06/15 05:36:09;;;;;;;44.97;6.97;;;15.30;99.90;;;;;;4976936;28;20231;-73
2023/06/15 05:38:35;;;;;;;32.28;6.03;;;15.20;99.90;;;;;;4976852;28;20229;-73
2023/06/15 05:41:01;;;;;;;26.83;5.50;;;15.30;99.90;;;;;;4975880;28;20184;-73
2023/06/15 05:43:26;;;;;;;39.47;5.88;;;15.30;99.90;;;;;;4976629;28;20212;-73
2023/06/15 05:45:52;;;;;;;26.48;6.03;;;15.40;99.90;;;;;;4977285;28;20208;-73
2023/06/15 05:48:19;;;;;;;39.58;6.05;;;15.50;99.90;;;;;;4975721;28;20225;-73
2023/06/15 05:50:45;;;;;;;38.28;6.25;;;15.70;99.90;;;;;;4976684;28;20279;-73
2023/06/15 05:53:10;;;;;;;30.98;5.70;;;15.90;99.90;;;;;;4975669;28;20268;-73
2023/06/15 05:55:36;;;;;;;25.85;5.95;;;16.00;99.90;;;;;;4975480;28;20209;-73
2023/06/15 05:58:01;;;;;;;31.83;6.43;;;16.20;99.90;;;;;;4976322;28;20549;-73
2023/06/15 06:00:30;;;;;;;40.00;6.47;;;16.30;99.90;;;;;;4976780;28;20176;-73
2023/06/15 06:02:56;;;;;;;32.55;6.22;;;16.50;99.90;;;;;;4975444;28;20268;-73
2023/06/15 06:05:23;;;;;;;22.38;5.43;;;16.70;99.90;;;;;;4976234;28;20185;-73
2023/06/15 06:07:49;;;;;;;9.57;4.90;;;16.90;99.90;;;;;;4977389;28;20196;-73
2023/06/15 06:10:18;;;;;;;9.73;4.65;;;17.10;99.90;;;;;;4975438;28;20181;-73
2023/06/15 06:12:43;;;;;;;5.28;4.78;;;17.40;99.90;;;;;;4976169;28;20181;-73
2023/06/15 06:15:09;;;;;;;9.57;4.78;;;17.80;99.90;;;;;;4976322;28;20311;-73
2023/06/15 06:17:34;;;;;;;5.97;4.30;;;18.20;99.90;;;;;;4975401;28;20243;-73
2023/06/15 06:20:00;;;;;;;11.27;4.20;;;19.10;99.20;;;;;;4975116;28;20178;-73
2023/06/15 06:22:28;;;;;;;7.32;4.32;;;20.00;95.70;;;;;;4975119;28;20224;-73
2023/06/15 06:24:53;;;;;;;8.48;4.30;;;20.80;93.30;;;;;;4975811;28;20236;-73
2023/06/15 06:27:19;;;;;;;5.22;3.78;;;21.50;90.00;;;;;;4974934;28;20192;-73
2023/06/15 06:29:44;;;;;;;7.43;3.42;;;22.40;84.50;;;;;;4975292;28;20217;-73
2023/06/15 06:32:10;;;;;;;6.13;3.55;;;22.50;80.90;;;;;;4976381;28;20592;-73
2023/06/15 06:34:35;;;;;;;4.90;3.92;;;22.70;79.00;;;;;;4975647;28;20205;-73
2023/06/15 06:37:04;;;;;;;3.88;3.58;;;23.00;78.00;;;;;;4975955;28;20193;-73
2023/06/15 06:39:31;;;;;;;4.82;3.80;;;23.60;75.20;;;;;;4975142;28;20239;-73
2023/06/15 06:41:56;;;;;;;7.60;3.67;;;23.90;74.60;;;;;;4974816;28;20181;-73
2023/06/15 06:44:22;;;;;;;8.65;3.45;;;24.00;72.00;;;;;;4975011;28;20180;-73
2023/06/15 06:46:47;;;;;;;6.07;3.50;;;23.90;71.70;;;;;;4974845;28;20205;-73
2023/06/15 06:49:13;;;;;;;5.22;3.50;;;24.10;71.10;;;;;;4974839;28;20180;-73
2023/06/15 06:51:39;;;;;;;5.32;3.58;;;23.90;69.60;;;;;;4976085;28;20543;-73
2023/06/15 06:54:04;;;;;;;3.90;3.50;;;23.70;70.50;;;;;;4974432;28;20208;-73
2023/06/15 06:56:30;;;;;;;3.95;3.65;;;23.60;71.40;;;;;;4975703;28;20640;-73
2023/06/15 06:58:56;;;;;;;4.82;3.70;;;23.20;71.80;;;;;;4974722;28;20204;-73
2023/06/15 07:01:21;;;;;;;4.47;3.70;;;22.70;73.70;;;;;;4975118;28;20219;-73
2023/06/15 07:03:47;;;;;;;4.97;3.67;;;22.10;75.50;;;;;;4975486;28;20232;-73
2023/06/15 07:06:12;;;;;;;6.38;3.53;;;21.50;77.30;;;;;;4974560;28;20690;-73
2023/06/15 07:08:38;;;;;;;4.32;3.92;;;21.20;79.10;;;;;;4974538;28;20220;-73
2023/06/15 07:11:03;;;;;;;4.03;3.60;;;21.00;80.40;;;;;;4974266;28;20180;-73
2023/06/15 07:13:29;;;;;;;7.38;3.63;;;20.90;80.00;;;;;;4975416;28;20185;-73
2023/06/15 07:15:57;;;;;;;6.20;3.50;;;20.70;78.80;;;;;;4973811;28;20710;-73
2023/06/15 07:18:23;;;;;;;5.25;3.45;;;20.70;79.30;;;;;;4974123;28;20177;-73
2023/06/15 07:20:53;;;;;;;3.80;3.50;;;20.60;80.80;;;;;;4974560;28;20184;-73
2023/06/15 07:23:22;;;;;;;4.75;3.75;;;20.60;79.40;;;;;;4975161;28;20173;-73
2023/06/15 07:25:54;;;;;;;4.18;3.50;;;20.80;80.20;;;;;;4974803;28;20243;-73
2023/06/15 07:28:20;;;;;;;4.18;3.33;;;20.70;79.30;;;;;;4975190;28;20181;-73
2023/06/15 07:30:49;;;;;;;4.28;3.40;;;20.80;79.10;;;;;;4973895;28;20279;-73
2023/06/15 07:33:15;;;;;;;9.45;3.50;;;20.80;77.70;;;;;;4974597;28;20251;-73
2023/06/15 07:35:42;;;;;;;9.55;3.67;;;20.80;74.40;;;;;;4973740;28;20232;-73
2023/06/15 07:38:07;;;;;;;5.15;3.20;;;21.00;76.00;;;;;;4973800;28;20256;-73
2023/06/15 07:40:33;;;;;;;7.85;3.65;;;21.10;71.30;;;;;;4974516;28;20292;-73
2023/06/15 07:42:59;;;;;;;5.25;3.50;;;21.20;72.90;;;;;;4974133;28;20196;-74
2023/06/15 07:45:24;;;;;;;5.40;2.92;;;21.30;70.40;;;;;;4974004;28;20181;-74
2023/06/15 07:47:50;;;;;;;4.07;3.15;;;21.30;68.40;;;;;;4975114;28;20177;-74
2023/06/15 07:50:15;;;;;;;3.63;3.30;;;21.30;70.30;;;;;;4974020;28;20315;-74
2023/06/15 07:52:41;;;;;;;4.97;3.38;;;21.40;70.70;;;;;;4973703;28;20220;-74
2023/06/15 07:55:07;;;;;;;3.80;3.35;;;21.50;68.30;;;;;;4973501;28;20295;-74
2023/06/15 07:57:34;;;;;;;5.75;3.30;;;21.70;69.60;;;;;;4974047;28;20228;-74
2023/06/15 08:00:01;;;;;;;4.65;2.95;;;21.90;68.60;;;;;;4973628;28;20660;-74
2023/06/15 08:02:27;;;;;;;3.70;3.25;;;22.10;68.30;;;;;;4973489;28;20189;-74
2023/06/15 08:04:52;;;;;;;4.85;3.50;;;22.10;66.40;;;;;;4974956;28;20190;-74
2023/06/15 08:07:18;;;;;;;5.93;3.58;;;22.00;66.40;;;;;;4973352;28;20295;-74
2023/06/15 08:09:43;;;;;;;6.65;3.40;;;22.10;66.50;;;;;;4974569;28;20265;-74
2023/06/15 08:12:10;;;;;;;3.90;3.25;;;22.30;66.80;;;;;;4973395;28;20184;-74
2023/06/15 08:14:38;;;;;;;6.57;3.53;;;22.20;65.50;;;;;;4974920;28;20555;-74
2023/06/15 08:17:04;;;;;;;5.50;3.45;;;22.30;66.10;;;;;;4973466;28;20216;-74
2023/06/15 08:19:30;;;;;;;7.10;3.58;;;22.50;65.20;;;;;;4973349;28;20260;-74
2023/06/15 08:21:55;;;;;;;7.38;4.22;;;22.50;61.80;;;;;;4973589;28;20184;-74
2023/06/15 08:24:21;;;;;;;5.90;3.60;;;22.30;62.00;;;;;;4973269;28;20180;-74
2023/06/15 08:26:48;;;;;;;7.13;3.58;;;22.20;64.00;;;;;;4974322;28;20224;-74
2023/06/15 08:29:14;;;;;;;6.10;3.78;;;22.40;64.30;;;;;;4974052;28;20231;-74
2023/06/15 08:31:40;;;;;;;8.65;3.40;;;22.40;60.50;;;;;;4975121;28;20180;-74
2023/06/15 08:34:06;;;;;;;4.55;3.50;;;22.50;60.50;;;;;;4974072;28;20179;-74
2023/06/15 08:36:32;;;;;;;9.30;3.65;;;22.80;62.30;;;;;;4974209;28;20630;-75
2023/06/15 08:38:57;;;;;;;4.97;2.97;;;23.00;59.70;;;;;;4973156;28;20208;-74
2023/06/15 08:41:26;;;;;;;6.45;3.58;;;23.10;58.70;;;;;;4974356;28;20674;-74
2023/06/15 08:43:53;;;;;;;6.03;3.72;;;23.20;57.80;;;;;;4973957;28;20281;-74
2023/06/15 08:46:28;;;;;;;7.55;3.30;;;22.80;57.70;;;;;;4973491;28;20197;-75
2023/06/15 08:48:53;;;;;;;5.68;3.60;;;22.60;59.40;;;;;;4973078;28;20183;-74
2023/06/15 08:51:23;;;;;;;3.80;3.47;;;22.70;59.50;;;;;;4973895;28;20185;-74
2023/06/15 08:53:50;;;;;;;5.93;3.67;;;22.70;59.50;;;;;;4973798;28;20184;-74
2023/06/15 08:56:15;;;;;;;6.05;3.53;;;22.70;59.00;;;;;;4972865;28;20271;-75
2023/06/15 08:58:49;;;;;;;6.78;3.85;;;22.90;60.10;;;;;;4973113;28;20201;-74
2023/06/15 09:01:22;;;;;;;4.53;3.70;;;23.20;59.50;;;;;;4973815;28;20177;-74
2023/06/15 09:03:50;;;;;;;5.38;3.58;;;23.30;59.60;;;;;;4973831;28;20529;-74
2023/06/15 09:06:16;;;;;;;4.78;3.40;;;23.20;59.30;;;;;;4973524;28;20240;-74
2023/06/15 09:08:42;;;;;;;4.95;3.60;;;23.10;59.30;;;;;;4972864;28;20216;-74
2023/06/15 09:11:08;;;;;;;4.95;3.83;;;23.10;57.50;;;;;;4973665;28;20173;-74
2023/06/15 09:13:34;;;;;;;4.10;3.70;;;23.40;58.10;;;;;;4976075;28;20185;-74
2023/06/15 09:16:01;;;;;;;6.38;3.83;;;24.00;57.80;;;;;;4976402;28;20281;-75
2023/06/15 09:18:27;;;;;;;4.10;3.63;;;24.60;56.50;;;;;;4977782;28;20181;-74
2023/06/15 09:20:59;;;;;;;7.30;3.38;;;24.90;56.40;;;;;;4977099;28;20184;-74
2023/06/15 09:23:25;;;;;;;11.00;3.47;;;25.00;56.00;;;;;;4977202;28;20177;-76
2023/06/15 09:25:51;;;;;;;8.02;3.70;;;24.90;54.00;;;;;;4976315;28;20213;-76
2023/06/15 09:28:28;;;;;;;4.72;3.60;;;24.50;54.40;;;;;;4976197;28;20213;-75
2023/06/15 09:31:01;;;;;;;5.97;3.22;;;24.20;54.30;;;;;;4976098;28;20181;-75
2023/06/15 09:33:29;;;;;;;7.45;3.80;;;24.10;56.50;;;;;;4977333;28;20165;-75
2023/06/15 09:35:57;;;;;;;8.10;3.55;;;23.90;57.60;;;;;;4975859;28;20227;-76
2023/06/15 09:38:23;;;;;;;4.13;3.50;;;23.60;58.90;;;;;;4977079;28;20172;-76
2023/06/15 09:40:49;;;;;;;4.30;3.72;;;23.40;59.00;;;;;;4975941;28;20185;-76
2023/06/15 09:43:16;;;;;;;4.13;3.63;;;23.10;59.20;;;;;;4976209;28;20279;-76
2023/06/15 09:46:09;;;;;;;5.18;3.67;;;22.90;59.10;;;;;;4975740;28;20189;-76
2023/06/15 09:48:38;;;;;;;5.47;3.72;;;22.70;60.00;;;;;;4972972;28;20288;-76
2023/06/15 09:51:04;;;;;;;5.18;3.53;;;22.60;60.20;;;;;;4975773;28;20268;-76
2023/06/15 09:53:31;;;;;;;7.35;3.67;;;22.50;60.50;;;;;;4975985;28;20216;-76
2023/06/15 09:55:58;;;;;;;8.07;3.88;;;22.50;60.90;;;;;;4975550;28;20219;-76
2023/06/15 09:58:24;;;;;;;5.03;3.65;;;22.40;60.50;;;;;;4975581;28;20177;-76
2023/06/15 10:00:51;;;;;;;5.63;3.58;;;22.60;60.40;;;;;;4975487;28;20173;-76
2023/06/15 10:03:21;;;;;;;5.88;3.90;;;22.60;60.30;;;;;;4975575;28;20208;-76
2023/06/15 10:05:52;;;;;;;7.05;3.80;;;22.90;60.10;;;;;;4976013;28;20255;-76
2023/06/15 10:08:20;;;;;;;4.00;3.38;;;23.20;57.20;;;;;;4975465;28;20173;-76
2023/06/15 10:10:46;;;;;;;4.05;3.65;;;23.50;57.00;;;;;;4975652;28;20184;-76
2023/06/15 10:13:20;;;;;;;4.00;3.30;;;23.80;55.40;;;;;;4975403;28;20188;-75
2023/06/15 10:15:51;;;;;;;7.25;3.58;;;24.20;53.00;;;;;;4975748;28;20217;-76
2023/06/15 10:18:22;;;;;;;4.13;3.40;;;24.30;52.00;;;;;;4976670;28;20228;-75
2023/06/15 10:20:53;;;;;;;3.75;3.45;;;24.30;52.20;;;;;;4976047;28;20200;-75
2023/06/15 10:23:25;;;;;;;8.52;3.53;;;24.40;52.60;;;;;;4975219;28;20187;-76
2023/06/15 10:25:52;;;;;;;5.32;3.55;;;24.10;53.50;;;;;;4975785;28;20197;-76
2023/06/15 10:28:23;;;;;;;7.28;3.65;;;24.30;53.50;;;;;;4975040;28;20176;-76
2023/06/15 10:31:25;;;;;;;8.35;3.40;;;24.40;54.10;;;;;;4975637;28;20271;-76
2023/06/15 10:34:24;;;;;;;7.70;3.22;;;24.30;53.70;;;;;;4975919;28;20232;-76
2023/06/15 10:37:12;;;;;;;4.25;3.15;;;24.30;54.00;;;;;;4972714;28;20224;-76
2023/06/15 10:39:44;;;;;;;5.80;3.63;;;24.10;55.10;;;;;;4974844;28;20212;-76
2023/06/15 10:42:13;;;;;;;4.72;3.67;;;23.90;54.00;;;;;;4976040;28;20260;-76
2023/06/15 10:44:39;;;;;;;6.18;3.50;;;23.70;54.30;;;;;;4975073;28;20276;-76
2023/06/15 10:47:12;;;;;;;5.88;3.67;;;23.60;55.00;;;;;;4974980;28;20241;-76
2023/06/15 10:49:52;;;;;;;6.63;3.58;;;23.50;54.70;;;;;;4974685;28;20173;-76
2023/06/15 10:52:17;;;;;;;4.32;3.35;;;23.30;55.30;;;;;;4974717;28;20173;-76
2023/06/15 10:54:43;;;;;;;6.97;3.60;;;23.20;55.70;;;;;;4974758;28;20207;-76
2023/06/15 10:57:09;;;;;;;7.20;3.60;;;23.20;54.70;;;;;;4975348;28;20197;-76
2023/06/15 10:59:57;;;;;;;5.30;3.33;;;23.20;54.80;;;;;;4975523;28;20508;-76
2023/06/15 11:02:28;;;;;;;7.05;3.20;;;23.10;54.80;;;;;;4975283;28;20201;-76
2023/06/15 11:05:03;;;;;;;6.35;3.60;;;23.20;55.20;;;;;;4974420;28;20212;-76
2023/06/15 11:07:43;;;;;;;3.72;3.33;;;23.10;54.70;;;;;;4974625;28;20690;-76
2023/06/15 11:10:37;;;;;;;4.78;3.67;;;23.00;54.50;;;;;;4974251;28;20223;-76
2023/06/15 11:13:04;;;;;;;5.68;3.80;;;22.90;53.00;;;;;;4974481;28;20181;-76
2023/06/15 11:15:37;;;;;;;8.23;3.88;;;23.00;55.30;;;;;;4974346;28;20200;-76
2023/06/15 11:18:13;;;;;;;6.05;3.45;;;22.90;53.90;;;;;;4975118;28;20204;-75
2023/06/15 11:20:39;;;;;;;4.28;3.10;;;22.90;54.60;;;;;;4975270;28;20183;-76
2023/06/15 11:23:16;;;;;;;4.70;3.15;;;23.00;54.90;;;;;;4974482;28;20181;-76
2023/06/15 11:25:46;;;;;;;9.55;3.70;;;22.90;53.50;;;;;;4974080;28;20224;-76
2023/06/15 11:28:15;;;;;;;4.22;3.70;;;22.80;53.00;;;;;;4972664;28;20231;-76
2023/06/15 11:30:42;;;;;;;5.78;3.60;;;22.80;54.20;;;;;;4974375;28;20239;-76
2023/06/15 11:33:12;;;;;;;5.20;3.60;;;22.90;53.00;;;;;;4974125;28;20228;-76
2023/06/15 11:35:38;;;;;;;8.57;3.58;;;23.00;53.20;;;;;;4973515;28;20240;-76
2023/06/15 11:38:08;;;;;;;4.13;3.28;;;23.00;54.00;;;;;;4973869;28;20189;-76
2023/06/15 11:40:34;;;;;;;4.50;3.50;;;23.20;53.70;;;;;;4974936;28;20176;-75
2023/06/15 11:43:02;;;;;;;6.28;3.40;;;23.20;52.30;;;;;;4975684;28;20173;-75
2023/06/15 11:45:28;;;;;;;4.35;3.22;;;23.30;54.70;;;;;;4974557;28;20185;-76
2023/06/15 11:47:54;;;;;;;3.83;3.40;;;23.50;52.50;;;;;;4974091;28;20184;-76
2023/06/15 11:50:20;;;;;;;3.50;3.20;;;23.60;53.00;;;;;;4973932;28;20180;-75
2023/06/15 11:52:47;;;;;;;6.80;3.65;;;23.70;51.90;;;;;;4973953;28;20184;-75
2023/06/15 11:55:15;;;;;;;3.40;3.08;;;23.90;50.10;;;;;;4975262;28;20620;-75
2023/06/15 11:57:44;;;;;;;3.33;3.03;;;24.00;50.50;;;;;;4974783;28;20189;-76
2023/06/15 12:00:10;;;;;;;7.75;3.45;;;24.30;48.80;;;;;;4974876;28;20250;-75
2023/06/15 12:02:37;;;;;;;7.82;3.28;;;24.30;49.30;;;;;;4973863;28;20183;-75
2023/06/15 12:05:03;;;;;;;5.20;3.47;;;24.40;48.80;;;;;;4973699;28;20247;-75
2023/06/15 12:07:34;;;;;;;5.65;3.30;;;24.70;47.90;;;;;;4973492;28;20234;-75
2023/06/15 12:10:03;;;;;;;4.38;3.10;;;24.70;46.50;;;;;;4973655;28;20267;-75
2023/06/15 12:12:36;;;;;;;3.85;3.45;;;24.80;47.60;;;;;;4973532;28;20181;-75
2023/06/15 12:15:06;;;;;;;6.10;3.47;;;24.70;45.70;;;;;;4973575;28;20197;-76
2023/06/15 12:17:33;;;;;;;6.75;3.50;;;24.60;46.40;;;;;;4957402;28;20293;-75
2023/06/15 12:20:08;;;;;;;3.78;3.35;;;24.80;47.40;;;;;;4973440;28;20176;-75
2023/06/15 12:22:45;;;;;;;4.40;3.40;;;24.80;48.60;;;;;;4973425;28;20176;-75
2023/06/15 12:25:11;;;;;;;5.78;3.40;;;25.00;47.50;;;;;;4973430;28;20180;-76
2023/06/15 12:27:49;;;;;;;4.53;3.40;;;25.10;47.50;;;;;;4974814;28;20203;-75
2023/06/15 12:30:17;;;;;;;5.25;3.20;;;25.00;45.60;;;;;;4973472;28;20256;-75
2023/06/15 12:32:43;;;;;;;4.70;3.28;;;25.00;46.30;;;;;;4973228;28;20185;-76
2023/06/15 12:35:36;;;;;;;14.18;3.45;;;25.10;46.10;;;;;;4974034;28;20208;-76
2023/06/15 12:38:02;;;;;;;6.38;3.08;;;25.30;46.00;;;;;;4974382;28;20632;-76
2023/06/15 12:40:27;;;;;;;3.45;3.17;;;25.10;45.00;;;;;;4974546;28;20212;-75
2023/06/15 12:43:06;;;;;;;3.80;3.20;;;25.20;44.80;;;;;;4974760;28;20666;-75
2023/06/15 12:45:36;;;;;;;3.47;3.17;;;25.30;46.10;;;;;;4974442;28;20207;-76
2023/06/15 12:48:02;;;;;;;4.93;3.25;;;25.20;44.80;;;;;;4975486;28;20185;-75
2023/06/15 12:50:31;;;;;;;5.05;3.40;;;24.90;46.00;;;;;;4976990;28;20276;-75
2023/06/15 12:52:57;;;;;;;7.07;3.28;;;24.80;46.90;;;;;;4977762;28;20204;-75
2023/06/15 12:55:25;;;;;;;3.40;3.05;;;24.80;46.40;;;;;;4976642;28;20204;-76
2023/06/15 12:57:50;;;;;;;6.38;3.15;;;25.10;45.60;;;;;;4976761;28;20188;-76
2023/06/15 13:00:18;;;;;;;6.07;3.65;;;25.30;45.10;;;;;;4977138;28;20668;-75
2023/06/15 13:02:44;;;;;;;6.30;3.45;;;25.30;44.30;;;;;;4976808;28;20221;-76
2023/06/15 13:05:10;;;;;;;6.28;3.28;;;25.30;43.20;;;;;;4977002;28;20216;-76